createdAt,value
2022-12-22T00:01:21.126Z,99806.06
2022-12-22T00:04:29.184Z,99800.03
2022-12-22T00:07:33.239Z,99794.78
2022-12-22T00:10:38.039Z,99787.06
2022-12-22T00:13:42.066Z,99794.84
2022-12-22T00:16:56.689Z,99793.97
2022-12-22T00:20:01.411Z,99796.56
2022-12-22T00:23:05.558Z,99796.53
2022-12-22T00:26:09.762Z,99794.75
2022-12-22T00:29:14.523Z,99786.16
2022-12-22T00:32:20.208Z,99791.25
2022-12-22T00:35:30.145Z,99792.91
2022-12-22T00:38:40.370Z,99796.38
2022-12-22T00:41:44.587Z,99791.28
2022-12-22T00:44:48.931Z,99797.38
2022-12-22T00:47:53.061Z,99787.16
2022-12-22T00:50:57.202Z,99779.44
2022-12-22T00:54:01.132Z,99777.72
2022-12-22T00:57:05.767Z,99775.19
2022-12-22T01:00:13.490Z,99770.91
2022-12-22T01:03:17.656Z,99769.25
2022-12-22T01:06:22.132Z,99779.56
2022-12-22T01:09:29.173Z,99783.00
2022-12-22T01:12:42.359Z,99786.38
2022-12-22T01:15:49.090Z,99790.63
2022-12-22T01:18:53.058Z,99788.00
2022-12-22T01:21:57.179Z,99780.28
2022-12-22T01:25:02.395Z,99792.31
2022-12-22T01:28:06.764Z,99786.28
2022-12-22T01:31:10.681Z,99788.03
2022-12-22T01:34:14.741Z,99788.03
2022-12-22T01:37:18.879Z,99790.63
2022-12-22T01:40:24.044Z,99787.19
2022-12-22T01:43:42.404Z,99790.63
2022-12-22T01:47:03.118Z,99788.00
2022-12-22T01:50:07.211Z,99790.63
2022-12-22T01:53:14.859Z,99797.53
2022-12-22T01:56:24.501Z,99799.28
2022-12-22T01:59:28.581Z,99796.72
2022-12-22T02:02:35.709Z,99798.50
2022-12-22T02:05:40.030Z,99801.13
2022-12-22T02:08:52.173Z,99802.88
2022-12-22T02:12:23.757Z,99800.34
2022-12-22T02:15:34.321Z,99801.25
2022-12-22T02:18:46.713Z,99800.34
2022-12-22T02:22:04.859Z,99811.56
2022-12-22T02:25:17.601Z,99805.50
2022-12-22T02:28:22.606Z,99807.25
2022-12-22T02:31:26.903Z,99799.50
2022-12-22T02:34:33.438Z,99800.34
2022-12-22T02:37:48.648Z,99797.75
2022-12-22T02:41:30.056Z,99794.34
2022-12-22T02:45:24.241Z,99801.28
2022-12-22T02:48:35.167Z,99797.88
2022-12-22T02:51:44.874Z,99802.22
2022-12-22T02:54:50.997Z,99797.06
2022-12-22T02:57:55.195Z,99791.91
2022-12-22T03:00:59.343Z,99793.66
2022-12-22T03:04:03.620Z,99793.66
2022-12-22T03:07:07.740Z,99792.75
2022-12-22T03:10:11.673Z,99790.19
2022-12-22T03:13:19.232Z,99786.75
2022-12-22T03:16:23.957Z,99776.41
2022-12-22T03:19:28.097Z,99774.69
2022-12-22T03:22:32.139Z,99775.56
2022-12-22T03:25:36.238Z,99775.56
2022-12-22T03:28:27.460Z,99771.28
2022-12-22T03:31:13.289Z,99772.16
2022-12-22T03:33:59.021Z,99772.16
2022-12-22T03:36:44.493Z,99779.91
2022-12-22T03:39:29.859Z,99775.59
2022-12-22T03:42:33.679Z,99774.75
2022-12-22T03:45:37.678Z,99781.66
2022-12-22T03:48:24.504Z,99792.09
2022-12-22T03:51:10.561Z,99789.56
2022-12-22T03:53:55.846Z,99786.09
2022-12-22T03:56:41.792Z,99783.56
2022-12-22T03:59:27.425Z,99787.88
2022-12-22T04:02:13.297Z,99792.19
2022-12-22T04:04:59.045Z,99779.25
2022-12-22T04:07:44.507Z,99776.69
2022-12-22T04:10:48.536Z,99769.81
2022-12-22T04:13:34.186Z,99770.66
2022-12-22T04:16:19.621Z,99773.25
2022-12-22T04:19:06.754Z,99787.09
2022-12-22T04:21:52.271Z,99787.94
2022-12-22T04:24:37.658Z,99791.38
2022-12-22T04:27:23.094Z,99787.09
2022-12-22T04:30:09.009Z,99785.34
2022-12-22T04:32:54.452Z,99792.25
2022-12-22T04:35:39.676Z,99795.69
2022-12-22T04:38:25.106Z,99802.59
2022-12-22T04:41:10.567Z,99810.38
2022-12-22T04:43:56.237Z,99809.50
2022-12-22T04:46:41.624Z,99811.22
2022-12-22T04:49:26.908Z,99806.03
2022-12-22T04:52:12.384Z,99801.72
2022-12-22T04:54:57.828Z,99799.13
2022-12-22T04:57:43.312Z,99792.22
2022-12-22T05:00:29.116Z,99793.94
2022-12-22T05:03:14.444Z,99797.38
2022-12-22T05:05:59.666Z,99802.56
2022-12-22T05:08:44.951Z,99799.97
2022-12-22T05:11:30.400Z,99795.69
2022-12-22T05:14:16.128Z,99799.97
2022-12-22T05:17:01.397Z,99807.72
2022-12-22T05:19:47.176Z,99803.44
2022-12-22T05:22:32.519Z,99803.44
2022-12-22T05:25:20.035Z,99802.59
2022-12-22T05:28:05.373Z,99805.19
2022-12-22T05:30:51.062Z,99802.59
2022-12-22T05:33:36.938Z,99804.31
2022-12-22T05:36:22.267Z,99806.91
2022-12-22T05:39:08.483Z,99809.47
2022-12-22T05:41:54.200Z,99805.19
2022-12-22T05:44:39.537Z,99811.22
2022-12-22T05:47:24.877Z,99812.94
2022-12-22T05:50:12.471Z,99810.38
2022-12-22T05:52:57.724Z,99808.63
2022-12-22T05:55:43.178Z,99802.63
2022-12-22T05:58:28.664Z,99801.72
2022-12-22T06:01:14.239Z,99794.84
2022-12-22T06:04:00.767Z,99794.78
2022-12-22T06:06:46.568Z,99801.69
2022-12-22T06:09:32.060Z,99812.00
2022-12-22T06:12:17.359Z,99810.28
2022-12-22T06:15:02.764Z,99799.03
2022-12-22T06:17:48.475Z,99797.34
2022-12-22T06:20:33.723Z,99808.53
2022-12-22T06:23:20.779Z,99811.09
2022-12-22T06:26:06.321Z,99816.28
2022-12-22T06:28:51.577Z,99818.00
2022-12-22T06:31:36.998Z,99826.63
2022-12-22T06:34:22.340Z,99828.34
2022-12-22T06:37:07.699Z,99834.38
2022-12-22T06:39:53.206Z,99825.75
2022-12-22T06:43:02.147Z,99828.34
2022-12-22T06:45:51.742Z,99812.84
2022-12-22T06:48:37.413Z,99813.69
2022-12-22T06:51:22.880Z,99810.25
2022-12-22T06:54:08.159Z,99811.09
2022-12-22T06:56:53.688Z,99812.84
2022-12-22T06:59:39.219Z,99811.97
2022-12-22T07:02:24.692Z,99797.34
2022-12-22T07:05:10.518Z,99793.00
2022-12-22T07:07:55.780Z,99789.56
2022-12-22T07:10:59.190Z,99792.16
2022-12-22T07:13:45.309Z,99785.22
2022-12-22T07:16:30.660Z,99789.53
2022-12-22T07:19:16.096Z,99784.34
2022-12-22T07:22:01.567Z,99785.22
2022-12-22T07:24:47.260Z,99776.59
2022-12-22T07:27:32.722Z,99778.31
2022-12-22T07:30:18.237Z,99780.91
2022-12-22T07:33:04.615Z,99780.91
2022-12-22T07:36:13.776Z,99786.91
2022-12-22T07:38:59.266Z,99783.50
2022-12-22T07:42:03.133Z,99780.91
2022-12-22T07:44:48.846Z,99782.63
2022-12-22T07:47:35.688Z,99783.50
2022-12-22T07:50:32.632Z,99786.09
2022-12-22T07:53:17.937Z,99786.09
2022-12-22T07:56:05.200Z,99789.56
2022-12-22T07:58:50.419Z,99797.31
2022-12-22T08:01:35.985Z,99797.31
2022-12-22T08:04:22.703Z,99799.03
2022-12-22T08:07:08.414Z,99801.63
2022-12-22T08:09:53.729Z,99805.09
2022-12-22T08:12:40.273Z,99809.41
2022-12-22T08:15:25.827Z,99818.03
2022-12-22T08:18:11.180Z,99827.53
2022-12-22T08:20:56.768Z,99832.69
2022-12-22T08:23:42.376Z,99840.44
2022-12-22T08:26:49.662Z,99836.09
2022-12-22T08:29:57.678Z,99852.47
2022-12-22T08:32:46.828Z,99856.78
2022-12-22T08:35:32.587Z,99868.81
2022-12-22T08:38:18.050Z,99873.94
2022-12-22T08:41:03.759Z,99859.28
2022-12-22T08:43:49.439Z,99869.63
2022-12-22T08:46:34.861Z,99873.06
2022-12-22T08:49:20.855Z,99878.25
2022-12-22T08:52:06.568Z,99882.50
2022-12-22T08:54:51.978Z,99882.50
2022-12-22T08:57:37.764Z,99895.44
2022-12-22T09:00:24.350Z,99889.41
2022-12-22T09:03:09.755Z,99891.97
2022-12-22T09:06:01.371Z,99900.59
2022-12-22T09:08:47.683Z,99895.44
2022-12-22T09:11:33.122Z,99900.59
2022-12-22T09:14:18.716Z,99907.47
2022-12-22T09:17:04.748Z,99906.59
2022-12-22T09:19:50.116Z,99921.25
2022-12-22T09:22:35.550Z,99922.09
2022-12-22T09:25:21.465Z,99934.19
2022-12-22T09:28:07.859Z,99939.38
2022-12-22T09:30:54.692Z,99941.13
2022-12-22T09:33:40.135Z,99947.16
2022-12-22T09:36:28.539Z,99954.09
2022-12-22T09:39:14.876Z,99949.81
2022-12-22T09:42:01.509Z,99951.53
2022-12-22T09:44:50.751Z,99948.97
2022-12-22T09:47:39.659Z,99939.59
2022-12-22T09:50:26.975Z,99956.88
2022-12-22T09:53:24.458Z,99949.22
2022-12-22T09:56:15.539Z,99948.38
2022-12-22T09:59:00.941Z,99956.19
2022-12-22T10:01:52.275Z,99954.50
2022-12-22T10:04:54.126Z,99964.00
2022-12-22T10:07:42.490Z,99970.06
2022-12-22T10:10:30.536Z,99967.50
2022-12-22T10:13:19.829Z,99970.09
2022-12-22T10:16:26.139Z,99972.69
2022-12-22T10:19:13.786Z,99970.09
2022-12-22T10:22:32.628Z,99976.19
2022-12-22T10:25:45.283Z,99972.78
2022-12-22T10:28:48.225Z,99981.41
2022-12-22T10:31:37.092Z,99977.97
2022-12-22T10:34:22.548Z,99980.59
2022-12-22T10:37:07.922Z,99977.16
2022-12-22T10:39:53.390Z,99977.16
2022-12-22T10:42:38.976Z,99981.50
2022-12-22T10:45:27.170Z,99976.31
2022-12-22T10:48:14.442Z,99984.97
2022-12-22T10:51:01.121Z,99982.38
2022-12-22T10:53:49.573Z,99981.50
2022-12-22T10:56:35.668Z,99980.66
2022-12-22T10:59:21.022Z,99984.09
2022-12-22T11:02:38.384Z,99977.22
2022-12-22T11:05:24.858Z,99976.38
2022-12-22T11:08:20.638Z,99974.69
2022-12-22T11:11:14.465Z,99985.97
2022-12-22T11:14:26.418Z,99987.66
2022-12-22T11:17:31.916Z,99985.91
2022-12-22T11:20:17.525Z,99985.06
2022-12-22T11:23:33.174Z,99982.53
2022-12-22T11:26:41.990Z,99990.28
2022-12-22T11:30:04.975Z,99978.13
2022-12-22T11:32:59.612Z,99974.66
2022-12-22T11:36:05.045Z,99971.19
2022-12-22T11:39:01.450Z,99966.03
2022-12-22T11:42:01.386Z,99965.19
2022-12-22T11:45:00.045Z,99975.59
2022-12-22T11:48:00.985Z,99982.53
2022-12-22T11:50:58.554Z,99992.91
2022-12-22T11:54:11.650Z,99985.19
2022-12-22T11:57:44.373Z,99993.00
2022-12-22T12:01:12.263Z,99996.44
2022-12-22T12:04:22.364Z,99989.56
2022-12-22T12:07:26.721Z,99990.41
2022-12-22T12:10:48.749Z,99995.59
2022-12-22T12:13:54.077Z,99986.97
2022-12-22T12:16:52.986Z,99984.34
2022-12-22T12:20:06.290Z,99989.53
2022-12-22T12:23:24.352Z,99981.75
2022-12-22T12:26:30.938Z,99997.28
2022-12-22T12:29:20.739Z,99992.09
2022-12-22T12:32:19.055Z,99993.81
2022-12-22T12:35:22.734Z,99986.94
2022-12-22T12:38:39.733Z,99979.13
2022-12-22T12:41:38.165Z,99989.47
2022-12-22T12:44:27.259Z,99998.97
2022-12-22T12:47:27.436Z,100001.56
2022-12-22T12:50:34.050Z,100007.59
2022-12-22T12:53:21.669Z,100005.00
2022-12-22T12:56:09.213Z,100011.94
2022-12-22T12:58:55.174Z,100013.63
2022-12-22T13:01:40.716Z,100012.78
2022-12-22T13:05:14.436Z,100011.06
2022-12-22T13:08:18.330Z,100013.69
2022-12-22T13:11:06.728Z,100015.44
2022-12-22T13:13:52.784Z,100011.97
2022-12-22T13:16:40.012Z,100000.75
2022-12-22T13:19:27.033Z,99996.44
2022-12-22T13:22:12.791Z,100008.56
2022-12-22T13:25:02.243Z,99999.91
2022-12-22T13:27:49.278Z,99993.81
2022-12-22T13:30:34.952Z,99990.38
2022-12-22T13:33:25.467Z,99996.41
2022-12-22T13:36:20.203Z,99981.69
2022-12-22T13:39:12.571Z,99968.75
2022-12-22T13:41:58.581Z,99966.16
2022-12-22T13:44:44.417Z,99963.56
2022-12-22T13:47:30.340Z,99973.06
2022-12-22T13:50:30.955Z,99980.78
2022-12-22T13:54:06.353Z,99977.34
2022-12-22T13:56:43.292Z,99992.88
2022-12-22T13:59:28.818Z,99991.13
2022-12-22T14:02:17.881Z,99991.97
2022-12-22T14:05:09.950Z,99987.59
2022-12-22T14:08:06.843Z,100001.41
2022-12-22T14:10:54.141Z,99999.66
2022-12-22T14:13:40.282Z,99994.47
2022-12-22T14:16:26.199Z,99989.28
2022-12-22T14:19:15.078Z,99987.56
2022-12-22T14:22:06.238Z,99982.41
2022-12-22T14:24:54.913Z,99989.28
2022-12-22T14:27:48.892Z,99991.00
2022-12-22T14:30:46.588Z,99985.00
2022-12-22T14:33:34.287Z,99988.50
2022-12-22T14:36:27.042Z,99997.16
2022-12-22T14:39:25.018Z,99994.63
2022-12-22T14:42:14.460Z,99982.59
2022-12-22T14:45:00.634Z,99986.03
2022-12-22T14:47:46.379Z,99988.63
2022-12-22T14:50:31.916Z,99983.44
2022-12-22T14:53:25.888Z,99991.16
2022-12-22T14:56:13.787Z,99994.56
2022-12-22T14:59:11.309Z,100004.88
2022-12-22T15:02:36.706Z,100011.72
2022-12-22T15:05:29.191Z,100023.75
2022-12-22T15:08:38.769Z,100028.91
2022-12-22T15:11:24.830Z,100037.53
2022-12-22T15:14:16.489Z,100049.63
2022-12-22T15:17:02.400Z,100060.00
2022-12-22T15:19:49.712Z,100066.00
2022-12-22T15:22:38.264Z,100061.69
2022-12-22T15:25:25.008Z,100063.38
2022-12-22T15:28:10.347Z,100055.56
2022-12-22T15:30:55.698Z,100055.56
2022-12-22T15:33:42.016Z,100040.88
2022-12-22T15:36:27.450Z,100049.47
2022-12-22T15:39:15.839Z,100058.88
2022-12-22T15:42:01.065Z,100058.00
2022-12-22T15:44:46.456Z,100064.84
2022-12-22T15:47:32.163Z,100070.81
2022-12-22T15:50:25.686Z,100073.34
2022-12-22T15:53:20.769Z,100075.81
2022-12-22T15:56:17.204Z,100078.34
2022-12-22T15:59:03.268Z,100086.06
2022-12-22T16:01:48.815Z,100092.88
2022-12-22T16:04:34.504Z,100101.41
2022-12-22T16:07:20.112Z,100105.69
2022-12-22T16:10:08.469Z,100109.91
2022-12-22T16:13:00.663Z,100104.63
2022-12-22T16:15:46.413Z,100108.03
2022-12-22T16:18:32.995Z,100127.72
2022-12-22T16:21:24.236Z,100143.16
2022-12-22T16:24:25.231Z,100155.97
2022-12-22T16:27:14.777Z,100155.91
2022-12-22T16:30:00.455Z,100157.59
2022-12-22T16:32:46.147Z,100162.66
2022-12-22T16:35:33.125Z,100179.78
2022-12-22T16:38:19.541Z,100180.56
2022-12-22T16:41:06.752Z,100189.03
2022-12-22T16:47:04.835Z,100207.81
2022-12-22T16:49:50.990Z,100206.84
2022-12-22T16:52:41.471Z,100193.81
2022-12-22T16:55:27.624Z,100199.81
2022-12-22T16:58:14.156Z,100191.94
2022-12-22T17:01:00.115Z,100204.72
2022-12-22T17:03:45.575Z,100211.50
2022-12-22T17:06:31.483Z,100209.53
2022-12-22T17:09:26.063Z,100206.91
2022-12-22T17:12:18.044Z,100205.25
2022-12-22T17:15:03.628Z,100203.53
2022-12-22T17:17:49.635Z,100196.63
2022-12-22T17:20:35.066Z,100207.69
2022-12-22T17:23:45.456Z,100217.91
2022-12-22T17:26:34.152Z,100222.88
2022-12-22T17:29:23.663Z,100220.25
2022-12-22T17:32:13.732Z,100226.22
2022-12-22T17:34:59.149Z,100215.84
2022-12-22T17:37:46.319Z,100219.25
2022-12-22T17:40:31.989Z,100223.56
2022-12-22T17:43:19.840Z,100224.38
2022-12-22T17:46:05.995Z,100227.69
2022-12-22T17:48:51.606Z,100241.31
2022-12-22T17:51:37.618Z,100237.84
2022-12-22T17:54:28.073Z,100243.78
2022-12-22T17:57:23.611Z,100249.59
2022-12-22T18:00:18.344Z,100246.13
2022-12-22T18:03:04.380Z,100247.97
2022-12-22T18:05:49.935Z,100245.47
2022-12-22T18:08:35.283Z,100246.38
2022-12-22T18:11:22.597Z,100254.22
2022-12-22T18:14:12.866Z,100257.59
2022-12-22T18:16:58.458Z,100254.16
2022-12-22T18:19:43.640Z,100252.53
2022-12-22T18:22:29.883Z,100267.94
2022-12-22T18:25:25.879Z,100266.22
2022-12-22T18:28:15.987Z,100266.97
2022-12-22T18:31:01.436Z,100259.25
2022-12-22T18:33:47.454Z,100262.63
2022-12-22T18:36:34.032Z,100261.75
2022-12-22T18:39:20.382Z,100260.84
2022-12-22T18:42:20.816Z,100260.84
2022-12-22T18:45:07.548Z,100260.78
2022-12-22T18:47:53.987Z,100275.38
2022-12-22T18:50:40.109Z,100266.72
2022-12-22T18:53:31.987Z,100267.53
2022-12-22T18:56:17.891Z,100271.69
2022-12-22T18:59:18.912Z,100269.06
2022-12-22T19:02:33.917Z,100260.44
2022-12-22T19:05:40.695Z,100266.44
2022-12-22T19:08:28.106Z,100264.66
2022-12-22T19:11:15.389Z,100263.66
2022-12-22T19:14:00.877Z,100273.06
2022-12-22T19:16:47.713Z,100272.09
2022-12-22T19:19:32.919Z,100266.91
2022-12-22T19:22:18.401Z,100261.72
2022-12-22T19:25:04.080Z,100264.22
2022-12-22T19:27:52.830Z,100267.56
2022-12-22T19:30:38.158Z,100268.38
2022-12-22T19:33:41.637Z,100261.44
2022-12-22T19:36:28.814Z,100270.00
2022-12-22T19:39:14.263Z,100272.50
2022-12-22T19:41:59.605Z,100272.44
2022-12-22T19:44:45.584Z,100271.50
2022-12-22T19:47:30.835Z,100267.22
2022-12-22T19:50:25.969Z,100279.19
2022-12-22T19:53:11.993Z,100286.03
2022-12-22T19:55:57.675Z,100298.84
2022-12-22T19:58:42.997Z,100300.53
2022-12-22T20:01:28.834Z,100300.50
2022-12-22T20:04:14.425Z,100303.91
2022-12-22T20:06:59.831Z,100297.00
2022-12-22T20:09:45.502Z,100295.22
2022-12-22T20:12:37.934Z,100298.59
2022-12-22T20:15:28.821Z,100301.16
2022-12-22T20:18:19.275Z,100295.06
2022-12-22T20:21:08.430Z,100288.94
2022-12-22T20:23:56.798Z,100290.63
2022-12-22T20:26:42.466Z,100295.78
2022-12-22T20:29:27.941Z,100292.34
2022-12-22T20:32:15.062Z,100289.81
2022-12-22T20:35:00.632Z,100293.25
2022-12-22T20:37:46.811Z,100283.78
2022-12-22T20:40:33.537Z,100280.34
2022-12-22T20:43:22.984Z,100276.81
2022-12-22T20:46:14.173Z,100273.38
2022-12-22T20:49:02.185Z,100273.28
2022-12-22T20:51:47.970Z,100274.09
2022-12-22T20:54:33.831Z,100276.56
2022-12-22T20:57:27.005Z,100273.03
2022-12-22T21:00:26.954Z,100262.56
2022-12-22T21:03:12.425Z,100254.69
2022-12-22T21:05:58.217Z,100256.16
2022-12-22T21:08:43.766Z,100250.72
2022-12-22T21:11:29.866Z,100256.28
2022-12-22T21:14:16.054Z,100252.50
2022-12-22T21:17:01.890Z,100245.47
2022-12-22T21:19:47.665Z,100254.66
2022-12-22T21:22:33.523Z,100253.50
2022-12-22T21:25:19.072Z,100242.06
2022-12-22T21:28:07.840Z,100248.47
2022-12-22T21:30:53.230Z,100244.81
2022-12-22T21:33:38.605Z,100246.38
2022-12-22T21:36:27.994Z,100249.63
2022-12-22T21:39:31.619Z,100259.94
2022-12-22T21:42:18.722Z,100251.38
2022-12-22T21:45:04.907Z,100264.97
2022-12-22T21:47:50.589Z,100262.28
2022-12-22T21:50:36.170Z,100269.22
2022-12-22T21:53:22.645Z,100273.84
2022-12-22T21:56:18.857Z,100269.19
2022-12-22T21:59:04.407Z,100271.16
2022-12-22T22:01:53.031Z,100271.28
2022-12-22T22:04:38.723Z,100285.13
2022-12-22T22:07:23.996Z,100291.06
2022-12-22T22:10:10.222Z,100287.81
2022-12-22T22:12:56.360Z,100284.56
2022-12-22T22:15:41.752Z,100286.34
2022-12-22T22:18:26.936Z,100287.25
2022-12-22T22:21:14.453Z,100285.66
2022-12-22T22:24:00.047Z,100284.81
2022-12-22T22:26:46.511Z,100283.09
2022-12-22T22:29:31.856Z,100281.38
2022-12-22T22:32:17.298Z,100276.19
2022-12-22T22:35:02.871Z,100273.59
2022-12-22T22:37:52.073Z,100269.19
2022-12-22T22:40:37.672Z,100265.66
2022-12-22T22:43:23.131Z,100254.38
2022-12-22T22:46:08.495Z,100255.84
2022-12-22T22:48:53.885Z,100245.34
2022-12-22T22:51:39.149Z,100252.03
2022-12-22T22:54:24.825Z,100245.88
2022-12-22T23:09:22.996Z,100245.75
2022-12-22T23:12:08.387Z,100241.56
2022-12-22T23:14:53.709Z,100234.00
2022-12-22T23:17:39.165Z,100233.38
2022-12-22T23:20:24.347Z,100235.97
2022-12-22T23:23:09.548Z,100242.88
2022-12-22T23:25:55.163Z,100241.03
2022-12-22T23:28:40.666Z,100238.41
2022-12-22T23:31:26.526Z,100253.06
2022-12-22T23:34:12.787Z,100247.91
2022-12-22T23:36:58.603Z,100251.28
2022-12-22T23:39:44.410Z,100240.97
2022-12-22T23:42:29.713Z,100231.34
2022-12-22T23:45:15.189Z,100222.72
2022-12-22T23:48:00.509Z,100223.34
2022-12-22T23:50:46.801Z,100218.78
2022-12-22T23:53:32.882Z,100208.28
2022-12-22T23:56:18.315Z,100212.41
2022-12-22T23:59:03.952Z,100219.88
